Time;durP1;ratioP1;P1;durP2;ratioP2;P2;SDS_P1;SDS_P2;PMS_P1;PMS_P2;Temp;Humidity;BMP_temperature;BMP_pressure;BME280_temperature;BME280_humidity;BME280_pressure;Samples;Min_cycle;Max_cycle;Signal;HPM_P1;HPM_P2
2023/05/02 05:45:44;;;;;;;4.80;0.57;;;;;;;9.97;73.18;102532.56;4991968;28;126887;-31
2023/05/02 05:48:09;;;;;;;0.50;0.38;;;;;;;9.96;73.04;102533.50;4993936;28;96569;-32
2023/05/02 05:50:35;;;;;;;6.88;0.60;;;;;;;9.98;73.19;102537.03;4993904;28;96884;-31
2023/05/02 05:53:00;;;;;;;1.20;0.60;;;;;;;10.02;72.94;102541.44;4993847;28;97905;-31
2023/05/02 05:55:26;;;;;;;4.53;0.80;;;;;;;9.96;72.35;102534.41;4994211;28;98120;-31
2023/05/02 05:57:51;;;;;;;1.23;0.60;;;;;;;9.97;71.66;102540.69;4992103;28;96670;-31
2023/05/02 06:00:17;;;;;;;2.88;0.65;;;;;;;10.04;71.66;102544.97;4993008;28;96733;-31
2023/05/02 06:02:43;;;;;;;1.55;0.55;;;;;;;10.02;70.94;102546.84;4991627;28;100769;-31
2023/05/02 06:05:08;;;;;;;4.85;0.52;;;;;;;10.02;70.71;102559.50;4993419;28;98629;-32
2023/05/02 06:07:33;;;;;;;3.95;0.80;;;;;;;9.98;70.52;102565.00;4993591;28;96722;-32
2023/05/02 06:09:59;;;;;;;1.45;0.88;;;;;;;9.92;70.12;102567.91;4993641;28;96837;-32
2023/05/02 06:12:24;;;;;;;0.93;0.40;;;;;;;9.88;70.65;102568.03;4992224;28;99449;-32
2023/05/02 06:14:50;;;;;;;1.08;0.47;;;;;;;9.85;70.15;102577.16;4993050;28;99345;-32
2023/05/02 06:17:15;;;;;;;1.35;0.45;;;;;;;9.90;70.44;102582.44;4979973;28;96780;-35
2023/05/02 06:19:41;;;;;;;0.77;0.50;;;;;;;9.97;70.73;102570.47;4972487;28;96548;-32
2023/05/02 06:22:06;;;;;;;1.60;0.85;;;;;;;10.00;70.45;102578.50;4971973;28;101318;-31
2023/05/02 06:24:31;;;;;;;4.35;0.70;;;;;;;10.05;70.37;102584.63;4972974;28;97784;-32
2023/05/02 06:26:57;;;;;;;1.98;0.80;;;;;;;10.05;70.15;102584.63;4972459;28;96642;-32
2023/05/02 06:29:22;;;;;;;3.38;1.13;;;;;;;10.08;69.05;102591.78;4972758;28;96775;-34
2023/05/02 06:31:50;;;;;;;0.40;0.40;;;;;;;10.14;69.57;102589.78;4972424;28;99658;-31
2023/05/02 06:34:15;;;;;;;1.85;0.77;;;;;;;10.15;69.05;102594.28;4971090;28;100464;-34
2023/05/02 06:36:40;;;;;;;2.00;0.68;;;;;;;10.18;69.03;102596.88;4971239;28;97077;-31
2023/05/02 06:39:05;;;;;;;2.78;0.45;;;;;;;10.31;68.72;102608.22;4970833;28;97139;-32
2023/05/02 06:41:31;;;;;;;2.53;0.63;;;;;;;10.52;68.43;102612.06;4970322;28;99204;-31
2023/05/02 06:43:56;;;;;;;0.73;0.43;;;;;;;10.83;67.17;102609.19;4970229;28;100333;-32
2023/05/02 06:46:21;;;;;;;1.75;0.88;;;;;;;10.93;67.25;102609.75;4970582;28;96790;-31
2023/05/02 06:48:47;;;;;;;0.88;0.60;;;;;;;10.87;66.88;102623.56;4970515;28;96820;-33
2023/05/02 06:51:14;;;;;;;3.35;0.65;;;;;;;10.81;66.47;102627.34;4970781;28;101203;-31
2023/05/02 06:53:39;;;;;;;1.65;0.40;;;;;;;10.69;67.19;102619.63;4971405;28;101455;-32
2023/05/02 06:56:05;;;;;;;3.63;0.50;;;;;;;10.66;67.25;102629.69;4973054;28;96546;-31
2023/05/02 06:58:30;;;;;;;4.28;0.75;;;;;;;10.55;67.62;102627.31;4971469;28;96938;-32
2023/05/02 07:00:56;;;;;;;4.07;0.63;;;;;;;10.56;67.45;102627.28;4972815;28;97922;-32
2023/05/02 07:03:21;;;;;;;2.88;1.02;;;;;;;10.52;67.16;102631.03;4972797;28;97241;-33
2023/05/02 07:05:46;;;;;;;1.27;0.43;;;;;;;10.57;68.03;102633.59;4973024;28;96481;-32
2023/05/02 07:08:12;;;;;;;2.40;0.88;;;;;;;10.61;67.67;102649.69;4973076;28;96779;-32
2023/05/02 07:10:37;;;;;;;5.35;0.70;;;;;;;10.73;67.35;102650.25;4972744;28;97841;-31
2023/05/02 07:13:02;;;;;;;2.38;0.57;;;;;;;10.83;66.43;102643.56;4972592;28;98564;-32
2023/05/02 07:15:28;;;;;;;2.70;0.80;;;;;;;10.96;65.80;102642.19;4972106;28;96589;-31
2023/05/02 07:17:53;;;;;;;1.05;0.60;;;;;;;11.04;64.67;102637.41;4972813;28;96797;-31
2023/05/02 07:20:19;;;;;;;2.92;0.70;;;;;;;11.13;64.88;102640.72;4972343;28;99091;-32
2023/05/02 07:22:44;;;;;;;8.23;0.70;;;;;;;11.08;63.16;102640.88;4972410;28;99055;-31
2023/05/02 07:25:10;;;;;;;5.05;0.70;;;;;;;11.02;64.38;102643.81;4972855;28;97142;-32
2023/05/02 07:27:35;;;;;;;0.60;0.50;;;;;;;10.86;63.26;102645.28;4972544;28;96732;-31
2023/05/02 07:30:00;;;;;;;1.98;0.52;;;;;;;10.87;62.49;102657.88;4971807;28;99907;-31
2023/05/02 07:32:26;;;;;;;1.85;0.50;;;;;;;10.81;62.72;102658.97;4972730;28;97994;-33
2023/05/02 07:34:55;;;;;;;0.65;0.47;;;;;;;10.81;63.35;102664.41;4972563;28;96511;-31
2023/05/02 07:37:22;;;;;;;0.50;0.30;;;;;;;10.75;63.59;102668.22;4972256;28;96927;-31
2023/05/02 07:39:47;;;;;;;0.82;0.60;;;;;;;10.87;63.24;102666.94;4970412;28;100809;-31
2023/05/02 07:42:12;;;;;;;1.10;0.47;;;;;;;10.96;62.49;102671.13;4972217;28;97847;-33
2023/05/02 07:44:37;;;;;;;3.92;0.60;;;;;;;11.19;62.96;102662.22;4971580;28;96819;-31
2023/05/02 07:47:03;;;;;;;1.65;0.55;;;;;;;11.38;60.85;102665.16;4972427;28;96789;-32
2023/05/02 07:49:29;;;;;;;0.77;0.50;;;;;;;11.61;61.57;102661.63;4972005;28;99191;-31
2023/05/02 07:51:55;;;;;;;2.20;0.60;;;;;;;11.83;60.82;102668.00;4970656;28;101323;-31
2023/05/02 07:54:21;;;;;;;6.50;0.65;;;;;;;11.71;60.21;102662.16;4974540;28;96657;-31
2023/05/02 07:56:47;;;;;;;0.73;0.52;;;;;;;11.63;61.59;102668.78;4977442;28;98613;-32
2023/05/02 07:59:13;;;;;;;4.97;0.70;;;;;;;11.45;61.61;102677.56;4977027;28;100829;-31
2023/05/02 08:01:43;;;;;;;1.60;0.75;;;;;;;11.31;62.48;102680.78;4977169;28;100742;-32
2023/05/02 08:04:10;;;;;;;3.85;1.23;;;;;;;11.32;62.67;102690.69;4978035;28;96665;-31
2023/05/02 08:06:35;;;;;;;3.55;0.70;;;;;;;11.45;61.33;102694.72;4978515;28;96812;-32
2023/05/02 08:09:01;;;;;;;3.75;0.70;;;;;;;11.34;61.66;102694.22;4978882;28;96990;-31
2023/05/02 08:11:26;;;;;;;1.38;0.52;;;;;;;11.34;61.94;102696.06;4978197;28;105106;-31
2023/05/02 08:13:51;;;;;;;4.85;0.75;;;;;;;11.41;62.23;102703.91;4978522;28;96600;-32
2023/05/02 08:16:18;;;;;;;2.25;0.57;;;;;;;11.43;61.58;102704.75;4978726;28;96761;-32
2023/05/02 08:18:43;;;;;;;3.30;0.73;;;;;;;11.50;61.18;102705.44;4976921;28;101148;-33
2023/05/02 08:21:09;;;;;;;2.40;0.98;;;;;;;11.52;61.54;102708.97;4978805;28;98291;-31
2023/05/02 08:23:36;;;;;;;1.10;0.82;;;;;;;11.68;60.55;102712.91;4977114;28;97319;-33
2023/05/02 08:26:01;;;;;;;0.45;0.32;;;;;;;11.73;59.30;102709.13;4976979;28;96878;-33
2023/05/02 08:28:27;;;;;;;2.38;0.63;;;;;;;11.85;59.33;102704.16;4977805;28;98035;-31
2023/05/02 08:30:52;;;;;;;3.33;0.65;;;;;;;11.87;59.06;102702.31;4978202;28;97715;-31
2023/05/02 08:33:17;;;;;;;2.17;0.60;;;;;;;11.85;59.37;102714.13;4978444;28;96514;-32
2023/05/02 08:35:43;;;;;;;3.03;0.57;;;;;;;11.83;59.68;102719.59;4978187;28;96810;-32
2023/05/02 08:38:08;;;;;;;0.85;0.63;;;;;;;11.85;58.22;102720.44;4978288;28;97981;-32
2023/05/02 08:40:35;;;;;;;1.67;0.60;;;;;;;12.25;58.55;102723.50;4978317;28;97787;-31
2023/05/02 08:43:01;;;;;;;4.30;0.68;;;;;;;12.35;56.90;102730.38;4978299;28;96570;-31
2023/05/02 08:45:30;;;;;;;1.58;0.60;;;;;;;12.65;56.87;102732.81;4978293;28;97901;-32
2023/05/02 08:47:57;;;;;;;1.08;0.55;;;;;;;13.28;56.03;102720.25;4977948;28;98093;-32
2023/05/02 08:50:24;;;;;;;3.70;0.57;;;;;;;13.92;55.56;102729.25;4978447;28;96568;-32
2023/05/02 08:52:51;;;;;;;0.77;0.57;;;;;;;14.17;52.45;102731.75;4977797;28;96554;-33
2023/05/02 08:55:17;;;;;;;1.63;0.82;;;;;;;13.86;53.93;102735.88;4976501;28;97046;-31
2023/05/02 08:57:43;;;;;;;0.73;0.50;;;;;;;13.43;54.70;102742.31;4976143;28;100930;-31
2023/05/02 09:00:08;;;;;;;2.05;0.60;;;;;;;13.10;55.61;102740.03;4978028;28;97788;-31
2023/05/02 09:02:58;;;;;;;0.55;0.40;;;;;;;12.85;54.03;102737.47;4976513;28;96683;-32
2023/05/02 09:05:24;;;;;;;2.03;0.55;;;;;;;12.90;55.06;102749.03;4976857;28;97763;-32
2023/05/02 09:07:50;;;;;;;0.57;0.40;;;;;;;12.99;53.51;102754.13;4974100;28;97366;-32
2023/05/02 09:10:15;;;;;;;1.02;0.60;;;;;;;13.45;54.34;102743.16;4973156;28;101035;-32
2023/05/02 09:12:41;;;;;;;2.47;0.60;;;;;;;13.55;54.24;102747.22;4974608;28;96724;-32
2023/05/02 09:15:11;;;;;;;0.68;0.52;;;;;;;13.50;52.76;102754.72;4974648;28;96797;-32
2023/05/02 09:17:39;;;;;;;3.20;0.68;;;;;;;13.24;53.16;102763.97;4984971;28;97509;-31
2023/05/02 09:20:05;;;;;;;2.95;0.45;;;;;;;13.49;53.17;102759.28;4994259;28;97859;-31
2023/05/02 09:22:30;;;;;;;0.30;0.30;;;;;;;13.44;52.52;102760.41;4984193;28;96798;-31
2023/05/02 09:24:56;;;;;;;0.95;0.60;;;;;;;13.61;51.96;102755.16;4974546;28;96854;-33
2023/05/02 09:27:21;;;;;;;1.35;0.65;;;;;;;14.19;50.29;102759.81;4974239;28;97386;-33
2023/05/02 09:29:46;;;;;;;0.90;0.57;;;;;;;14.59;50.79;102760.72;4977190;28;98876;-32
2023/05/02 09:32:12;;;;;;;2.10;0.85;;;;;;;14.45;50.74;102758.59;4994096;28;96777;-32
2023/05/02 09:34:38;;;;;;;1.13;0.80;;;;;;;14.57;49.53;102760.78;4994614;28;96785;-32
2023/05/02 09:37:04;;;;;;;0.60;0.43;;;;;;;14.83;49.78;102762.25;4993839;28;98333;-32
2023/05/02 09:39:29;;;;;;;2.17;0.80;;;;;;;14.73;50.88;102769.09;4992371;28;99008;-32
2023/05/02 09:41:55;;;;;;;2.22;0.98;;;;;;;14.74;48.96;102776.31;4989616;28;96849;-32
2023/05/02 09:44:23;;;;;;;1.02;0.68;;;;;;;15.03;50.39;102772.16;4972087;28;96899;-32
2023/05/02 09:46:53;;;;;;;0.65;0.60;;;;;;;15.22;49.51;102774.84;4974119;28;97914;-33
2023/05/02 09:49:38;;;;;;;2.05;0.50;;;;;;;15.57;49.16;102766.72;4972282;28;101064;-31
2023/05/02 09:52:15;;;;;;;1.30;0.73;;;;;;;15.94;48.49;102775.72;4978881;28;97192;-32
2023/05/02 09:54:41;;;;;;;2.17;0.47;;;;;;;16.03;46.83;102775.25;4982481;28;96944;-31
2023/05/02 09:57:06;;;;;;;2.55;0.85;;;;;;;15.94;48.06;102773.00;4974143;28;97987;-31
2023/05/02 09:59:32;;;;;;;2.75;0.52;;;;;;;15.48;48.54;102776.25;4974162;28;97847;-30
2023/05/02 10:02:08;;;;;;;1.38;0.47;;;;;;;15.04;49.24;102782.13;4973335;28;96686;-33
2023/05/02 10:04:34;;;;;;;1.15;0.47;;;;;;;14.61;50.64;102784.22;4973943;28;96561;-32
2023/05/02 10:07:01;;;;;;;2.55;0.80;;;;;;;14.83;48.79;102780.47;4973121;28;97987;-31
2023/05/02 10:09:28;;;;;;;2.30;0.50;;;;;;;14.98;50.42;102776.97;4972194;28;100985;-32
2023/05/02 10:11:55;;;;;;;0.52;0.32;;;;;;;15.06;49.76;102782.94;4972235;28;96584;-31
2023/05/02 10:14:22;;;;;;;1.27;0.45;;;;;;;14.88;49.48;102769.31;4982320;28;97057;-31
2023/05/02 10:17:12;;;;;;;0.93;0.52;;;;;;;14.63;50.37;102784.13;4991511;28;100865;-31
2023/05/02 10:19:47;;;;;;;0.50;0.43;;;;;;;14.54;49.06;102779.09;4991525;28;100990;-31
2023/05/02 10:22:14;;;;;;;1.65;0.77;;;;;;;14.65;50.06;102784.94;4991981;28;96626;-32
2023/05/02 10:24:40;;;;;;;2.45;1.10;;;;;;;14.69;49.26;102785.69;4992294;28;96805;-31
2023/05/02 10:27:06;;;;;;;4.15;0.75;;;;;;;14.50;49.82;102788.38;4991688;28;99331;-31
2023/05/02 10:29:32;;;;;;;2.30;0.57;;;;;;;14.54;50.21;102781.81;4991684;28;101470;-31
2023/05/02 10:31:59;;;;;;;1.83;0.63;;;;;;;14.45;50.04;102784.00;4992986;28;96907;-30
2023/05/02 10:34:26;;;;;;;2.15;0.68;;;;;;;14.87;47.94;102784.78;4993065;28;96922;-33
2023/05/02 10:36:53;;;;;;;2.13;0.65;;;;;;;15.31;48.60;102783.56;4991568;28;100853;-32
2023/05/02 10:39:23;;;;;;;3.75;0.88;;;;;;;15.78;47.16;102774.78;4991364;28;100816;-30
2023/05/02 10:41:51;;;;;;;0.85;0.63;;;;;;;16.10;45.05;102781.28;4993076;28;96602;-31
2023/05/02 10:44:18;;;;;;;2.63;0.80;;;;;;;16.08;47.47;102780.47;4992580;28;96816;-31
2023/05/02 10:46:43;;;;;;;3.75;0.80;;;;;;;16.00;45.71;102789.09;4991485;28;101463;-31
2023/05/02 10:49:11;;;;;;;1.98;0.70;;;;;;;15.75;47.98;102784.03;4993412;28;97432;-31
2023/05/02 10:51:40;;;;;;;2.80;0.60;;;;;;;15.64;47.52;102780.94;4993108;28;96582;-30
2023/05/02 10:54:24;;;;;;;2.10;1.00;;;;;;;15.85;47.68;102784.41;4991273;28;96917;-31
2023/05/02 10:57:05;;;;;;;8.13;1.17;;;;;;;16.18;45.35;102789.94;4990526;28;101230;-30
2023/05/02 10:59:41;;;;;;;2.60;1.00;;;;;;;16.37;44.68;102787.06;4991445;28;101283;-32
2023/05/02 11:02:26;;;;;;;2.28;0.90;;;;;;;16.62;44.78;102788.47;4992542;28;96550;-33
2023/05/02 11:05:03;;;;;;;1.38;0.75;;;;;;;16.81;43.11;102786.50;4991528;28;96742;-31
2023/05/02 11:07:30;;;;;;;2.05;0.88;;;;;;;16.89;44.64;102788.78;4991247;28;100768;-32
2023/05/02 11:10:14;;;;;;;1.42;0.60;;;;;;;17.11;44.41;102791.16;4991034;28;101082;-32
2023/05/02 11:12:44;;;;;;;1.17;0.60;;;;;;;17.13;44.07;102794.69;4991262;28;96505;-30
2023/05/02 11:15:10;;;;;;;2.30;0.95;;;;;;;17.04;43.41;102793.41;4991662;28;96916;-32
2023/05/02 11:17:57;;;;;;;1.25;0.75;;;;;;;17.13;43.67;102791.97;4992335;28;99707;-30
2023/05/02 11:20:23;;;;;;;1.40;0.90;;;;;;;17.34;44.07;102796.16;4992389;28;97830;-31
2023/05/02 11:22:48;;;;;;;3.70;1.05;;;;;;;17.44;43.34;102792.88;4991719;28;96558;-30
2023/05/02 11:25:35;;;;;;;3.83;1.20;;;;;;;17.54;43.90;102788.63;4990959;28;96825;-32
2023/05/02 11:28:02;;;;;;;2.65;1.00;;;;;;;17.47;43.61;102782.66;4990931;28;100407;-31
2023/05/02 11:30:44;;;;;;;1.63;0.90;;;;;;;17.26;42.14;102792.13;4989543;28;101068;-30
2023/05/02 11:33:11;;;;;;;4.22;0.85;;;;;;;17.23;42.41;102793.16;4990883;28;96619;-31
2023/05/02 11:35:41;;;;;;;1.50;0.68;;;;;;;17.31;42.04;102792.75;4992229;28;96829;-32
2023/05/02 11:38:14;;;;;;;1.67;1.15;;;;;;;17.48;41.80;102798.09;4992068;28;99484;-31
2023/05/02 11:40:40;;;;;;;2.10;1.23;;;;;;;17.59;42.68;102800.19;4992403;28;99723;-31
2023/05/02 11:43:16;;;;;;;3.60;1.23;;;;;;;17.67;42.05;102799.75;4990901;28;96930;-31
2023/05/02 11:45:42;;;;;;;1.60;0.80;;;;;;;17.75;42.01;102798.28;4990261;28;96908;-31
2023/05/02 11:48:10;;;;;;;2.55;1.02;;;;;;;17.73;40.26;102799.34;4991388;28;97914;-30
2023/05/02 11:50:47;;;;;;;3.17;0.98;;;;;;;17.90;41.09;102804.75;4990592;28;101251;-31
2023/05/02 11:53:15;;;;;;;1.48;0.77;;;;;;;17.41;42.06;102811.28;4990701;28;96620;-32
2023/05/02 11:56:03;;;;;;;1.33;0.88;;;;;;;17.11;42.76;102827.66;4990634;28;96856;-33
2023/05/02 11:58:33;;;;;;;2.17;1.20;;;;;;;17.11;43.02;102821.28;4991693;28;99211;-32
2023/05/02 12:01:13;;;;;;;1.23;0.95;;;;;;;17.35;42.00;102813.50;4990258;28;100952;-31
2023/05/02 12:03:38;;;;;;;1.45;0.88;;;;;;;17.60;42.67;102815.66;4990451;28;96731;-31
2023/05/02 12:06:12;;;;;;;9.70;1.33;;;;;;;17.26;41.16;102819.53;4992121;28;96896;-31
2023/05/02 12:08:38;;;;;;;2.03;1.20;;;;;;;17.02;42.79;102817.25;4990383;28;100969;-32
2023/05/02 12:11:03;;;;;;;1.52;0.77;;;;;;;17.26;42.24;102812.19;4990169;28;100921;-30
2023/05/02 12:13:29;;;;;;;1.65;0.90;;;;;;;17.51;43.19;102813.47;4991173;28;96396;-31
2023/05/02 12:15:56;;;;;;;6.20;1.27;;;;;;;17.63;43.21;102818.22;4991953;28;96752;-31
2023/05/02 12:18:22;;;;;;;5.05;1.95;;;;;;;17.69;42.52;102826.09;4991793;28;97622;-33
2023/05/02 12:20:50;;;;;;;1.10;0.80;;;;;;;17.80;41.90;102820.88;4990151;28;100975;-31
2023/05/02 12:23:16;;;;;;;2.45;1.20;;;;;;;17.68;41.81;102824.31;4991587;28;96594;-31
2023/05/02 12:25:42;;;;;;;2.90;1.05;;;;;;;17.74;41.58;102832.16;4991636;28;96811;-30
2023/05/02 12:28:09;;;;;;;3.53;1.27;;;;;;;17.80;41.37;102829.09;4991322;28;100528;-30
2023/05/02 12:30:37;;;;;;;4.68;1.15;;;;;;;17.95;42.33;102834.63;4990170;28;101081;-30
2023/05/02 12:33:03;;;;;;;2.83;1.10;;;;;;;17.96;40.71;102845.47;4990215;28;96891;-31
2023/05/02 12:35:30;;;;;;;2.30;1.20;;;;;;;18.06;41.99;102836.69;4990146;28;96844;-32
2023/05/02 12:38:11;;;;;;;2.17;1.05;;;;;;;18.19;41.19;102838.59;4989617;28;101407;-31
2023/05/02 12:40:37;;;;;;;1.37;1.00;;;;;;;18.33;40.75;102842.31;4991232;28;100721;-31
2023/05/02 12:43:05;;;;;;;2.70;0.90;;;;;;;18.35;41.46;102838.53;4994912;28;96636;-31
2023/05/02 12:45:34;;;;;;;4.10;1.20;;;;;;;18.39;40.37;102834.59;4993161;28;96924;-32
2023/05/02 12:48:01;;;;;;;5.07;1.63;;;;;;;18.29;41.10;102840.78;4994544;28;99417;-32
2023/05/02 12:50:38;;;;;;;4.72;1.50;;;;;;;18.21;39.30;102843.97;4993373;28;100832;-31
2023/05/02 12:53:05;;;;;;;5.38;0.93;;;;;;;18.19;40.67;102846.81;4994911;28;96495;-31
2023/05/02 12:55:33;;;;;;;1.33;0.63;;;;;;;18.25;42.35;102851.91;4995222;28;96845;-31
2023/05/02 12:57:59;;;;;;;5.07;1.50;;;;;;;18.13;39.82;102844.44;4992875;28;100986;-31
2023/05/02 13:00:25;;;;;;;3.15;1.15;;;;;;;18.06;40.75;102848.53;4993072;28;101183;-31
2023/05/02 13:02:51;;;;;;;6.05;1.00;;;;;;;17.91;41.35;102864.09;4994285;28;96654;-31
2023/05/02 13:05:17;;;;;;;3.47;0.90;;;;;;;17.90;40.48;102854.09;4992941;28;96910;-30
2023/05/02 13:07:43;;;;;;;5.88;1.40;;;;;;;17.97;41.12;102865.56;4993067;28;101415;-31
2023/05/02 13:10:10;;;;;;;1.90;1.15;;;;;;;17.90;40.67;102865.06;4994334;28;98889;-32
2023/05/02 13:12:37;;;;;;;3.40;1.20;;;;;;;17.94;38.42;102866.63;4993169;28;96512;-31
2023/05/02 13:15:07;;;;;;;2.13;1.02;;;;;;;17.93;40.36;102864.00;4993086;28;96798;-31
2023/05/02 13:17:34;;;;;;;2.03;1.00;;;;;;;17.95;40.31;102873.03;4992945;28;101999;-30
2023/05/02 13:20:00;;;;;;;1.10;0.70;;;;;;;18.00;40.18;102862.66;4992886;28;101150;-31
2023/05/02 13:22:25;;;;;;;4.10;1.02;;;;;;;18.01;39.88;102864.41;4994108;28;96693;-31
2023/05/02 13:24:51;;;;;;;4.25;1.13;;;;;;;17.97;40.00;102865.56;4994263;28;96834;-31
2023/05/02 13:27:17;;;;;;;2.92;1.10;;;;;;;17.90;39.34;102870.56;4993746;28;98018;-31
2023/05/02 13:29:45;;;;;;;3.25;0.77;;;;;;;17.70;39.91;102865.34;4993959;28;98810;-31
2023/05/02 13:32:10;;;;;;;1.75;0.90;;;;;;;17.67;41.17;102860.91;4992896;28;96841;-33
2023/05/02 13:34:36;;;;;;;1.05;0.77;;;;;;;17.73;39.96;102866.06;4993909;28;97231;-31
2023/05/02 13:37:01;;;;;;;4.20;1.05;;;;;;;17.65;40.77;102868.34;4993958;28;99312;-31
2023/05/02 13:39:27;;;;;;;1.58;0.85;;;;;;;17.65;41.00;102870.22;4994072;28;97866;-31
2023/05/02 13:41:52;;;;;;;2.92;0.70;;;;;;;17.60;40.71;102875.97;4993844;28;96577;-31
2023/05/02 13:44:17;;;;;;;4.53;1.00;;;;;;;17.35;40.98;102882.88;4993992;28;96662;-32
2023/05/02 13:46:43;;;;;;;1.63;0.93;;;;;;;17.18;40.82;102875.63;4994247;28;96779;-32
2023/05/02 13:49:08;;;;;;;3.10;1.15;;;;;;;17.13;42.40;102885.06;4993320;28;98988;-31
2023/05/02 13:51:34;;;;;;;1.67;0.90;;;;;;;17.14;40.53;102881.38;4993109;28;96667;-31
2023/05/02 13:53:59;;;;;;;5.05;1.02;;;;;;;17.17;41.28;102881.19;4993597;28;96777;-31
2023/05/02 13:56:25;;;;;;;2.58;1.10;;;;;;;17.25;40.88;102884.38;4992073;28;101034;-31
2023/05/02 13:58:51;;;;;;;1.63;0.90;;;;;;;17.11;40.83;102892.47;4993696;28;99707;-31
2023/05/02 14:01:16;;;;;;;2.05;0.70;;;;;;;16.97;42.35;102877.72;4993846;28;96607;-31
2023/05/02 14:03:41;;;;;;;2.35;0.80;;;;;;;16.98;41.98;102870.41;4993208;28;97006;-32
2023/05/02 14:06:07;;;;;;;2.63;0.73;;;;;;;17.00;42.02;102887.63;4993828;28;97898;-32
2023/05/02 14:08:32;;;;;;;1.33;0.70;;;;;;;16.93;40.93;102887.06;4993975;28;97308;-31
2023/05/02 14:10:57;;;;;;;1.73;0.80;;;;;;;16.75;41.50;102880.72;4993539;28;96592;-32
2023/05/02 14:13:23;;;;;;;2.05;0.80;;;;;;;16.72;41.66;102890.97;4993745;28;96877;-32
2023/05/02 14:15:49;;;;;;;1.98;1.02;;;;;;;16.46;41.50;102898.72;4991615;28;101187;-33
2023/05/02 14:18:15;;;;;;;2.30;0.90;;;;;;;16.46;40.89;102895.13;4993048;28;99126;-31
2023/05/02 14:20:41;;;;;;;1.55;0.93;;;;;;;16.35;42.00;102895.69;4992029;28;96818;-31
2023/05/02 14:23:06;;;;;;;1.35;0.73;;;;;;;16.43;42.14;102901.63;4993386;28;96827;-33
2023/05/02 14:25:31;;;;;;;1.75;1.00;;;;;;;16.28;40.41;102902.44;4993168;28;99319;-31
2023/05/02 14:27:57;;;;;;;3.10;0.85;;;;;;;16.25;42.08;102892.53;4993117;28;99298;-32
2023/05/02 14:30:22;;;;;;;3.65;0.80;;;;;;;16.21;42.66;102896.44;4992698;28;101858;-31
2023/05/02 14:32:47;;;;;;;2.60;0.63;;;;;;;16.24;41.61;102898.13;4993806;28;96842;-32
2023/05/02 14:35:13;;;;;;;4.07;1.00;;;;;;;16.17;41.76;102897.56;4992900;28;109483;-31
2023/05/02 14:37:38;;;;;;;1.70;0.90;;;;;;;16.14;41.86;102887.66;4992937;28;99070;-33
2023/05/02 14:40:04;;;;;;;4.72;0.95;;;;;;;16.13;41.03;102879.53;4992710;28;96704;-31
2023/05/02 14:42:30;;;;;;;1.65;0.95;;;;;;;16.09;41.57;102875.22;4992870;28;96821;-31
2023/05/02 14:44:55;;;;;;;2.72;0.80;;;;;;;16.05;42.21;102876.31;4992423;28;97277;-30
2023/05/02 14:47:21;;;;;;;4.68;1.27;;;;;;;16.04;42.16;102882.75;4992886;28;97781;-32
2023/05/02 14:49:46;;;;;;;5.93;1.13;;;;;;;15.99;42.03;102884.81;4992840;28;96651;-31
2023/05/02 14:52:12;;;;;;;2.38;0.82;;;;;;;15.84;42.06;102875.59;4993125;28;96857;-31
2023/05/02 14:54:37;;;;;;;4.15;1.30;;;;;;;15.79;42.02;102886.75;4992936;28;98418;-32
2023/05/02 14:57:02;;;;;;;2.67;1.17;;;;;;;15.74;40.97;102886.09;4975573;28;98032;-32
2023/05/02 14:59:29;;;;;;;1.60;0.98;;;;;;;15.65;42.78;102875.59;4972850;28;96648;-32
2023/05/02 15:01:54;;;;;;;3.03;1.02;;;;;;;15.59;42.91;102875.88;4977139;28;96901;-31
2023/05/02 15:04:20;;;;;;;4.25;1.08;;;;;;;15.60;42.90;102877.69;4990656;28;99577;-32
2023/05/02 15:06:46;;;;;;;3.22;1.00;;;;;;;15.52;42.80;102878.06;4992361;28;99616;-32
2023/05/02 15:09:12;;;;;;;3.38;1.45;;;;;;;15.56;43.23;102868.75;4991415;28;96632;-31
2023/05/02 15:11:38;;;;;;;2.00;0.93;;;;;;;15.59;42.84;102873.16;4991527;28;96950;-30
2023/05/02 15:14:03;;;;;;;2.92;1.33;;;;;;;15.49;43.16;102870.91;4992768;28;97333;-32
2023/05/02 15:16:28;;;;;;;4.90;1.13;;;;;;;15.48;42.76;102876.44;4992459;28;97070;-31
2023/05/02 15:18:54;;;;;;;4.57;1.27;;;;;;;15.56;43.29;102879.66;4992594;28;96612;-31
2023/05/02 15:21:20;;;;;;;2.65;1.02;;;;;;;15.52;42.87;102889.00;4992778;28;96865;-31
2023/05/02 15:23:46;;;;;;;4.10;1.48;;;;;;;15.38;43.06;102881.47;4990919;28;99309;-31
2023/05/02 15:26:12;;;;;;;1.42;0.98;;;;;;;15.38;43.63;102886.94;4992127;28;99596;-31
2023/05/02 15:28:37;;;;;;;3.88;1.30;;;;;;;15.37;43.23;102893.34;4991974;28;96501;-31
2023/05/02 15:31:03;;;;;;;2.17;1.23;;;;;;;15.40;42.61;102890.50;4991766;28;99611;-31
2023/05/02 15:33:28;;;;;;;2.08;1.20;;;;;;;15.36;42.59;102890.72;4992101;28;99280;-32
2023/05/02 15:35:59;;;;;;;3.55;1.40;;;;;;;15.18;43.77;102882.47;4992285;28;97773;-31
2023/05/02 15:38:25;;;;;;;1.92;1.20;;;;;;;15.04;43.51;102884.94;4992283;28;96523;-31
2023/05/02 15:40:58;;;;;;;2.85;1.13;;;;;;;14.91;44.17;102890.09;4990962;28;96968;-32
2023/05/02 15:43:24;;;;;;;2.40;1.10;;;;;;;14.88;44.01;102894.84;4990511;28;100871;-31
2023/05/02 15:45:53;;;;;;;3.15;1.33;;;;;;;14.89;43.58;102904.78;4991036;28;97904;-31
2023/05/02 15:48:20;;;;;;;2.85;1.20;;;;;;;14.88;43.52;102903.03;4985028;28;96693;-31
2023/05/02 15:50:46;;;;;;;2.53;1.25;;;;;;;14.88;43.28;102908.47;4986105;28;96983;-33
2023/05/02 15:53:15;;;;;;;2.78;1.50;;;;;;;14.76;43.48;102905.34;4990534;28;99355;-32
2023/05/02 15:55:42;;;;;;;4.00;1.50;;;;;;;14.75;43.91;102906.31;4989536;28;101051;-32
2023/05/02 15:58:17;;;;;;;4.75;0.98;;;;;;;14.70;44.37;102902.03;4989475;28;97157;-30
2023/05/02 16:00:43;;;;;;;2.63;1.23;;;;;;;14.71;44.25;102904.69;4989936;28;96783;-31
2023/05/02 16:03:09;;;;;;;1.92;0.95;;;;;;;14.64;44.37;102909.53;4990283;28;101124;-31
2023/05/02 16:05:35;;;;;;;1.73;1.05;;;;;;;14.65;44.59;102902.22;4991687;28;99535;-31
2023/05/02 16:08:01;;;;;;;1.65;1.08;;;;;;;14.58;43.99;102898.00;4989467;28;96780;-32
2023/05/02 16:10:26;;;;;;;2.35;1.25;;;;;;;14.54;45.06;102901.81;4989028;28;96840;-31
2023/05/02 16:12:52;;;;;;;4.90;1.27;;;;;;;14.50;44.85;102894.72;4988371;28;100836;-32
2023/05/02 16:15:18;;;;;;;2.70;1.38;;;;;;;14.52;44.31;102901.00;4990841;28;97828;-31
2023/05/02 16:17:43;;;;;;;2.88;1.13;;;;;;;14.48;45.27;102904.81;4991425;28;98102;-31
2023/05/02 16:20:09;;;;;;;4.10;1.33;;;;;;;14.36;44.32;102898.06;4993614;28;96938;-33
2023/05/02 16:22:36;;;;;;;2.35;1.00;;;;;;;14.33;45.49;102903.66;4992201;28;102328;-31
2023/05/02 16:25:03;;;;;;;2.55;1.40;;;;;;;14.26;45.46;102908.50;4993825;28;99322;-31
2023/05/02 16:27:29;;;;;;;3.08;1.15;;;;;;;14.23;45.35;102900.47;4994370;28;97713;-32
2023/05/02 16:29:57;;;;;;;7.43;0.93;;;;;;;14.19;45.22;102899.69;4993598;28;97014;-32
2023/05/02 16:32:23;;;;;;;1.58;0.85;;;;;;;14.23;45.17;102908.66;4994895;28;99280;-31
2023/05/02 16:34:51;;;;;;;2.67;1.17;;;;;;;14.18;45.75;102906.13;4995229;28;99323;-32
2023/05/02 16:37:17;;;;;;;1.85;0.80;;;;;;;14.07;45.51;102911.13;4990425;28;96717;-31
2023/05/02 16:39:45;;;;;;;2.03;0.88;;;;;;;14.10;45.84;102911.00;4995117;28;96789;-32
2023/05/02 16:42:10;;;;;;;1.80;1.08;;;;;;;13.99;45.66;102910.56;4992899;28;101576;-31
2023/05/02 16:44:36;;;;;;;2.08;1.05;;;;;;;13.90;45.69;102905.53;4993061;28;99286;-33
2023/05/02 16:47:02;;;;;;;4.25;1.40;;;;;;;13.92;45.79;102899.06;4995056;28;96516;-31
2023/05/02 16:49:28;;;;;;;2.17;1.00;;;;;;;13.84;45.89;102898.50;4994660;28;96933;-31
2023/05/02 16:51:54;;;;;;;4.53;1.38;;;;;;;13.78;45.84;102902.38;4994816;28;97944;-31
2023/05/02 16:54:20;;;;;;;2.03;0.82;;;;;;;13.70;45.70;102903.63;4993208;28;100783;-32
2023/05/02 16:56:46;;;;;;;2.67;1.17;;;;;;;13.56;45.83;102899.66;4993180;28;96844;-32
2023/05/02 16:59:11;;;;;;;2.38;1.08;;;;;;;13.64;45.90;102903.91;4994984;28;96868;-32
2023/05/02 17:01:37;;;;;;;2.25;0.80;;;;;;;13.65;45.80;102901.09;4994593;28;97917;-32
2023/05/02 17:04:03;;;;;;;1.00;0.50;;;;;;;13.62;46.13;102905.81;4994248;28;99220;-32
2023/05/02 17:06:30;;;;;;;3.88;0.68;;;;;;;13.67;46.25;102906.50;4992811;28;97094;-31
2023/05/02 17:08:56;;;;;;;1.90;1.00;;;;;;;13.71;46.14;102897.25;4993067;28;96821;-31